createdAt,value
2019-01-25T00:02:16.148Z,12.70
2019-01-25T00:04:52.558Z,13.00
2019-01-25T00:07:28.409Z,13.20
2019-01-25T00:10:05.636Z,12.75
2019-01-25T00:12:42.712Z,13.05
2019-01-25T00:15:18.981Z,12.58
2019-01-25T00:17:54.845Z,12.93
2019-01-25T00:20:31.192Z,13.22
2019-01-25T00:23:08.384Z,12.18
2019-01-25T00:25:45.604Z,11.95
2019-01-25T00:28:22.558Z,13.08
2019-01-25T00:30:59.454Z,13.10
2019-01-25T00:33:36.577Z,12.50
2019-01-25T00:36:13.498Z,12.03
2019-01-25T00:38:49.981Z,11.48
2019-01-25T00:41:27.274Z,12.30
2019-01-25T00:44:04.336Z,11.50
2019-01-25T00:46:40.866Z,11.48
2019-01-25T00:49:17.602Z,11.53
2019-01-25T00:51:53.769Z,12.85
2019-01-25T00:54:29.710Z,11.90
2019-01-25T00:57:06.184Z,12.00
2019-01-25T00:59:42.125Z,10.87
2019-01-25T01:02:18.310Z,12.33
2019-01-25T01:04:55.072Z,10.83
2019-01-25T01:07:30.890Z,11.85
2019-01-25T01:10:14.017Z,11.50
2019-01-25T01:12:45.546Z,11.70
2019-01-25T01:15:22.885Z,11.05
2019-01-25T01:17:59.696Z,10.90
2019-01-25T01:20:36.410Z,11.50
2019-01-25T01:23:12.857Z,11.53
2019-01-25T01:25:49.278Z,11.70
2019-01-25T01:28:31.096Z,10.90
2019-01-25T01:31:07.733Z,11.35
2019-01-25T01:33:44.441Z,11.30
2019-01-25T01:36:21.370Z,10.77
2019-01-25T01:38:58.228Z,10.28
2019-01-25T01:41:34.696Z,10.20
2019-01-25T01:44:11.209Z,11.00
2019-01-25T01:46:48.629Z,11.90
2019-01-25T01:49:25.081Z,10.20
2019-01-25T01:52:02.513Z,10.10
2019-01-25T01:54:39.149Z,10.90
2019-01-25T01:57:15.636Z,10.23
2019-01-25T01:59:52.007Z,10.98
2019-01-25T02:02:28.398Z,10.38
2019-01-25T02:05:05.524Z,10.28
2019-01-25T02:07:41.216Z,11.20
2019-01-25T02:10:21.556Z,10.30
2019-01-25T02:12:57.433Z,10.80
2019-01-25T02:15:33.690Z,9.95
2019-01-25T02:18:10.169Z,11.00
2019-01-25T02:20:45.906Z,10.08
2019-01-25T02:23:21.835Z,9.75
2019-01-25T02:25:58.554Z,10.10
2019-01-25T02:28:35.012Z,9.78
2019-01-25T02:31:11.610Z,9.83
2019-01-25T02:33:48.362Z,9.90
2019-01-25T02:36:24.993Z,10.08
2019-01-25T02:39:01.166Z,9.78
2019-01-25T02:41:38.586Z,9.28
2019-01-25T02:44:15.072Z,9.48
2019-01-25T02:46:51.589Z,8.93
2019-01-25T02:49:27.595Z,9.70
2019-01-25T02:52:04.747Z,9.27
2019-01-25T02:54:40.592Z,9.27
2019-01-25T02:57:16.534Z,9.63
2019-01-25T02:59:52.985Z,8.73
2019-01-25T03:02:30.637Z,9.45
2019-01-25T03:05:08.417Z,9.55
2019-01-25T03:07:44.832Z,9.13
2019-01-25T03:10:28.706Z,8.60
2019-01-25T03:13:00.198Z,9.18
2019-01-25T03:15:36.130Z,9.05
2019-01-25T03:18:11.912Z,8.50
2019-01-25T03:20:48.330Z,9.18
2019-01-25T03:23:25.573Z,8.80
2019-01-25T03:26:02.094Z,8.83
2019-01-25T03:28:39.411Z,8.70
2019-01-25T03:31:15.968Z,9.15
2019-01-25T03:33:52.437Z,9.15
2019-01-25T03:36:28.322Z,8.65
2019-01-25T03:39:10.590Z,8.00
2019-01-25T03:41:47.173Z,8.98
2019-01-25T03:44:23.934Z,8.83
2019-01-25T03:47:00.394Z,9.13
2019-01-25T03:49:37.761Z,8.25
2019-01-25T03:52:13.730Z,7.58
2019-01-25T03:54:50.936Z,8.33
2019-01-25T03:57:26.825Z,8.25
2019-01-25T04:00:03.463Z,8.53
2019-01-25T04:02:39.237Z,8.10
2019-01-25T04:05:16.867Z,8.80
2019-01-25T04:07:52.868Z,8.30
2019-01-25T04:10:30.829Z,8.58
2019-01-25T04:13:07.600Z,8.40
2019-01-25T04:15:43.756Z,8.10
2019-01-25T04:18:20.377Z,8.63
2019-01-25T04:20:57.156Z,8.18
2019-01-25T04:23:34.100Z,7.92
2019-01-25T04:26:11.435Z,7.72
2019-01-25T04:28:48.070Z,7.75
2019-01-25T04:31:24.656Z,8.40
2019-01-25T04:34:01.198Z,8.13
2019-01-25T04:36:37.217Z,8.13
2019-01-25T04:39:13.097Z,7.73
2019-01-25T04:41:50.719Z,7.42
2019-01-25T04:44:27.478Z,7.70
2019-01-25T04:47:04.474Z,7.90
2019-01-25T04:49:40.523Z,8.18
2019-01-25T04:52:16.909Z,8.13
2019-01-25T04:54:53.147Z,8.00
2019-01-25T04:57:29.152Z,7.28
2019-01-25T05:00:07.072Z,7.73
2019-01-25T05:02:58.535Z,7.42
2019-01-25T05:05:34.576Z,8.03
2019-01-25T05:08:19.316Z,7.07
2019-01-25T05:10:55.793Z,7.03
2019-01-25T05:13:31.913Z,7.17
2019-01-25T05:16:12.714Z,7.70
2019-01-25T05:18:49.551Z,7.95
2019-01-25T05:21:26.110Z,6.80
2019-01-25T05:24:10.686Z,7.35
2019-01-25T05:26:47.037Z,7.53
2019-01-25T05:29:26.005Z,7.53
2019-01-25T05:32:05.852Z,7.22
2019-01-25T05:34:43.442Z,6.87
2019-01-25T05:37:19.742Z,7.10
2019-01-25T05:39:56.580Z,6.85
2019-01-25T05:42:33.064Z,7.25
2019-01-25T05:45:11.337Z,6.75
2019-01-25T05:47:47.422Z,7.13
2019-01-25T05:50:23.285Z,6.85
2019-01-25T05:52:59.848Z,6.58
2019-01-25T05:55:36.341Z,7.50
2019-01-25T05:58:12.715Z,6.85
2019-01-25T06:00:49.940Z,6.57
2019-01-25T06:03:26.018Z,6.97
2019-01-25T06:06:04.554Z,6.08
2019-01-25T06:08:44.019Z,6.33
2019-01-25T06:11:18.656Z,6.53
2019-01-25T06:13:54.342Z,6.00
2019-01-25T06:16:30.733Z,6.15
2019-01-25T06:19:06.913Z,5.97
2019-01-25T06:21:43.557Z,6.42
2019-01-25T06:24:19.397Z,9.67
2019-01-25T06:26:55.896Z,8.95
2019-01-25T06:29:33.799Z,7.87
2019-01-25T06:32:11.379Z,6.87
2019-01-25T06:34:47.896Z,7.73
2019-01-25T06:37:26.260Z,7.55
2019-01-25T06:40:02.822Z,7.95
2019-01-25T06:42:40.014Z,7.00
2019-01-25T06:45:16.885Z,7.35
2019-01-25T06:47:52.563Z,6.80
2019-01-25T06:50:28.918Z,8.53
2019-01-25T06:53:05.093Z,8.03
2019-01-25T06:55:41.489Z,7.05
2019-01-25T06:58:35.833Z,7.55
2019-01-25T07:01:28.017Z,7.20
2019-01-25T07:04:05.277Z,7.40
2019-01-25T07:06:41.249Z,6.42
2019-01-25T07:09:16.942Z,6.87
2019-01-25T07:11:52.628Z,7.65
2019-01-25T07:14:29.344Z,6.35
2019-01-25T07:17:05.900Z,6.05
2019-01-25T07:19:42.270Z,7.20
2019-01-25T07:22:18.428Z,7.08
2019-01-25T07:24:57.261Z,6.50
2019-01-25T07:27:33.269Z,15.45
2019-01-25T07:30:10.904Z,33.20
2019-01-25T07:32:47.049Z,25.40
2019-01-25T07:35:22.984Z,21.65
2019-01-25T07:38:00.017Z,20.75
2019-01-25T07:40:36.936Z,19.67
2019-01-25T07:43:13.146Z,18.37
2019-01-25T07:45:49.683Z,16.35
2019-01-25T07:48:25.777Z,14.68
2019-01-25T07:51:01.702Z,14.45
2019-01-25T07:53:38.296Z,13.18
2019-01-25T07:56:14.692Z,12.75
2019-01-25T07:58:51.038Z,11.85
2019-01-25T08:01:28.005Z,11.57
2019-01-25T08:04:23.747Z,11.63
2019-01-25T08:06:59.748Z,10.00
2019-01-25T08:09:35.817Z,9.90
2019-01-25T08:12:12.243Z,8.88
2019-01-25T08:14:48.554Z,8.35
2019-01-25T08:17:24.794Z,8.88
2019-01-25T08:20:01.666Z,8.15
2019-01-25T08:22:38.321Z,7.67
2019-01-25T08:25:14.722Z,8.20
2019-01-25T08:27:51.063Z,7.83
2019-01-25T08:30:27.326Z,7.75
2019-01-25T08:33:03.909Z,7.85
2019-01-25T08:35:39.977Z,7.12
2019-01-25T08:38:16.185Z,6.70
2019-01-25T08:40:52.234Z,6.22
2019-01-25T08:43:28.651Z,6.75
2019-01-25T08:46:04.735Z,5.80
2019-01-25T08:48:41.083Z,6.83
2019-01-25T08:51:17.894Z,5.90
2019-01-25T08:53:54.480Z,6.22
2019-01-25T08:56:31.045Z,5.92
2019-01-25T08:59:08.121Z,6.60
2019-01-25T09:01:44.169Z,6.93
2019-01-25T09:04:22.063Z,6.67
2019-01-25T09:06:58.852Z,6.70
2019-01-25T09:09:35.577Z,6.80
2019-01-25T09:12:12.600Z,5.92
2019-01-25T09:14:49.437Z,6.75
2019-01-25T09:17:25.600Z,6.45
2019-01-25T09:20:01.808Z,6.53
2019-01-25T09:22:37.548Z,6.58
2019-01-25T09:25:13.575Z,5.67
2019-01-25T09:27:50.284Z,5.80
2019-01-25T09:30:26.932Z,5.72
2019-01-25T09:33:03.340Z,5.87
2019-01-25T09:35:40.531Z,6.47
2019-01-25T09:38:17.008Z,6.33
2019-01-25T09:40:54.933Z,6.37
2019-01-25T09:43:30.831Z,6.72
2019-01-25T09:46:07.692Z,6.30
2019-01-25T09:48:44.282Z,5.78
2019-01-25T09:51:20.976Z,6.58
2019-01-25T09:53:57.524Z,6.53
2019-01-25T09:56:34.457Z,5.93
2019-01-25T09:59:10.581Z,6.23
2019-01-25T10:01:47.133Z,6.10
2019-01-25T10:04:23.640Z,6.37
2019-01-25T10:07:00.804Z,6.30
2019-01-25T10:09:37.358Z,6.37
2019-01-25T10:12:13.444Z,6.35
2019-01-25T10:14:49.396Z,6.92
2019-01-25T10:17:26.050Z,6.42
2019-01-25T10:20:02.011Z,6.22
2019-01-25T10:22:39.220Z,5.90
2019-01-25T10:25:15.593Z,6.30
2019-01-25T10:27:51.467Z,6.33
2019-01-25T10:30:28.485Z,6.05
2019-01-25T10:33:04.979Z,6.75
2019-01-25T10:35:41.869Z,7.25
2019-01-25T10:38:18.280Z,6.80
2019-01-25T10:40:54.765Z,6.27
2019-01-25T10:43:31.112Z,6.47
2019-01-25T10:46:07.106Z,6.10
2019-01-25T10:48:43.739Z,6.70
2019-01-25T10:51:20.038Z,6.53
2019-01-25T10:53:56.625Z,6.43
2019-01-25T10:56:33.070Z,6.70
2019-01-25T10:59:09.099Z,6.25
2019-01-25T11:01:45.098Z,6.53
2019-01-25T11:04:21.135Z,6.50
2019-01-25T11:06:57.421Z,7.72
2019-01-25T11:09:37.883Z,7.90
2019-01-25T11:12:11.018Z,7.33
2019-01-25T11:14:47.753Z,8.75
2019-01-25T11:17:24.278Z,7.55
2019-01-25T11:19:59.951Z,8.18
2019-01-25T11:22:36.336Z,8.10
2019-01-25T11:25:16.201Z,7.53
2019-01-25T11:27:51.852Z,9.13
2019-01-25T11:30:29.090Z,8.13
2019-01-25T11:33:05.588Z,7.65
2019-01-25T11:35:41.444Z,8.50
2019-01-25T11:38:18.318Z,7.03
2019-01-25T11:40:54.493Z,8.45
2019-01-25T11:43:30.877Z,8.00
2019-01-25T11:46:07.106Z,7.42
2019-01-25T11:48:43.871Z,7.72
2019-01-25T11:51:20.111Z,7.62
2019-01-25T11:53:56.346Z,7.40
2019-01-25T11:56:32.411Z,9.78
2019-01-25T11:59:08.412Z,8.55
2019-01-25T12:01:44.660Z,8.48
2019-01-25T12:04:21.349Z,8.83
2019-01-25T12:06:57.986Z,8.90
2019-01-25T12:09:33.763Z,10.23
2019-01-25T12:12:10.273Z,8.98
2019-01-25T12:14:46.833Z,10.90
2019-01-25T12:17:23.301Z,9.03
2019-01-25T12:19:59.211Z,10.72
2019-01-25T12:22:35.629Z,8.75
2019-01-25T12:25:12.440Z,9.68
2019-01-25T12:27:48.573Z,9.60
2019-01-25T12:30:29.838Z,8.90
2019-01-25T12:33:07.268Z,8.50
2019-01-25T12:35:44.319Z,8.10
2019-01-25T12:38:20.376Z,8.75
2019-01-25T12:40:57.101Z,9.05
2019-01-25T12:43:33.036Z,8.98
2019-01-25T12:46:09.065Z,8.30
2019-01-25T12:48:45.407Z,8.73
2019-01-25T12:51:32.525Z,8.58
2019-01-25T12:54:08.800Z,8.65
2019-01-25T12:56:47.240Z,7.80
2019-01-25T12:59:23.813Z,7.90
2019-01-25T13:02:01.205Z,7.92
2019-01-25T13:04:39.551Z,7.70
2019-01-25T13:07:15.946Z,7.80
2019-01-25T13:09:52.497Z,7.75
2019-01-25T13:12:28.189Z,8.23
2019-01-25T13:15:06.196Z,8.28
2019-01-25T13:17:42.153Z,7.33
2019-01-25T13:20:24.095Z,7.92
2019-01-25T13:23:00.252Z,7.62
2019-01-25T13:25:37.492Z,7.33
2019-01-25T13:28:14.085Z,8.20
2019-01-25T13:30:50.632Z,7.85
2019-01-25T13:33:27.133Z,7.40
2019-01-25T13:36:02.896Z,8.55
2019-01-25T13:38:39.217Z,7.43
2019-01-25T13:41:15.844Z,7.83
2019-01-25T13:43:51.728Z,7.45
2019-01-25T13:46:29.119Z,7.37
2019-01-25T13:49:06.078Z,7.67
2019-01-25T13:51:44.296Z,7.87
2019-01-25T13:54:28.688Z,6.80
2019-01-25T13:57:02.598Z,8.45
2019-01-25T13:59:38.715Z,8.63
2019-01-25T14:02:15.840Z,7.40
2019-01-25T14:04:52.493Z,8.13
2019-01-25T14:07:31.378Z,8.83
2019-01-25T14:10:11.044Z,7.80
2019-01-25T14:12:46.767Z,7.08
2019-01-25T14:15:23.525Z,7.83
2019-01-25T14:17:59.825Z,8.10
2019-01-25T14:20:35.716Z,8.48
2019-01-25T14:23:17.365Z,7.67
2019-01-25T14:25:53.100Z,8.23
2019-01-25T14:28:30.567Z,7.20
2019-01-25T14:31:06.656Z,7.35
2019-01-25T14:33:44.114Z,6.95
2019-01-25T14:36:20.477Z,7.87
2019-01-25T14:38:56.936Z,7.72
2019-01-25T14:41:33.389Z,7.65
2019-01-25T14:44:12.450Z,8.77
2019-01-25T14:46:50.144Z,8.70
2019-01-25T14:49:27.425Z,8.43
2019-01-25T14:52:03.883Z,8.90
2019-01-25T14:54:40.195Z,8.45
2019-01-25T14:57:16.201Z,8.30
2019-01-25T14:59:52.336Z,10.58
2019-01-25T15:02:28.586Z,9.23
2019-01-25T15:05:07.730Z,10.00
2019-01-25T15:07:43.610Z,9.18
2019-01-25T15:10:22.177Z,9.90
2019-01-25T15:12:59.478Z,9.95
2019-01-25T15:15:35.448Z,9.48
2019-01-25T15:18:11.752Z,10.35
2019-01-25T15:20:47.682Z,9.10
2019-01-25T15:23:24.098Z,9.23
2019-01-25T15:26:00.567Z,9.63
2019-01-25T15:28:37.317Z,9.38
2019-01-25T15:31:14.515Z,9.10
2019-01-25T15:33:50.539Z,9.65
2019-01-25T15:36:27.506Z,9.83
2019-01-25T15:39:05.741Z,10.43
2019-01-25T15:41:41.989Z,9.25
2019-01-25T15:44:18.264Z,10.70
2019-01-25T15:46:54.804Z,9.80
2019-01-25T15:49:31.080Z,9.18
2019-01-25T15:52:07.424Z,9.80
2019-01-25T15:54:43.201Z,10.88
2019-01-25T15:57:22.037Z,9.60
2019-01-25T15:59:57.976Z,11.10
2019-01-25T16:02:41.315Z,10.38
2019-01-25T16:05:19.775Z,10.63
2019-01-25T16:07:56.643Z,10.58
2019-01-25T16:10:32.863Z,11.13
2019-01-25T16:13:09.149Z,10.68
2019-01-25T16:15:45.351Z,11.25
2019-01-25T16:18:22.003Z,11.15
2019-01-25T16:20:57.756Z,10.00
2019-01-25T16:23:35.166Z,10.88
2019-01-25T16:26:12.240Z,11.10
2019-01-25T16:29:23.577Z,10.53
2019-01-25T16:31:45.000Z,9.88
2019-01-25T16:34:25.561Z,10.95
2019-01-25T16:37:30.006Z,10.63
2019-01-25T16:41:02.537Z,10.13
2019-01-25T16:43:42.207Z,10.35
2019-01-25T16:46:33.688Z,9.23
2019-01-25T16:48:59.722Z,11.40
2019-01-25T16:52:06.922Z,10.15
2019-01-25T16:54:44.265Z,10.13
2019-01-25T16:57:54.612Z,10.35
2019-01-25T17:00:50.225Z,9.85
2019-01-25T17:03:52.309Z,9.83
2019-01-25T17:06:28.531Z,10.23
2019-01-25T17:09:08.112Z,10.37
2019-01-25T17:11:44.341Z,9.55
2019-01-25T17:14:21.424Z,9.40
2019-01-25T17:16:57.594Z,11.43
2019-01-25T17:19:34.504Z,10.23
2019-01-25T17:22:10.953Z,9.73
2019-01-25T17:24:47.509Z,9.95
2019-01-25T17:27:23.952Z,9.75
2019-01-25T17:30:00.344Z,9.53
2019-01-25T17:32:37.029Z,9.78
2019-01-25T17:35:13.293Z,9.43
2019-01-25T17:37:49.212Z,9.20
2019-01-25T17:40:28.519Z,9.83
2019-01-25T17:43:04.817Z,9.70
2019-01-25T17:45:40.732Z,9.73
2019-01-25T17:48:16.963Z,8.80
2019-01-25T17:50:53.208Z,9.37
2019-01-25T17:53:29.688Z,8.85
2019-01-25T17:56:05.939Z,8.78
2019-01-25T17:58:41.746Z,7.42
2019-01-25T18:01:18.117Z,9.35
2019-01-25T18:03:53.974Z,10.03
2019-01-25T18:06:30.239Z,9.80
2019-01-25T18:09:07.992Z,9.75
2019-01-25T18:11:43.929Z,8.78
2019-01-25T18:14:19.993Z,8.83
2019-01-25T18:16:56.688Z,8.37
2019-01-25T18:19:33.547Z,7.47
2019-01-25T18:22:09.372Z,7.78
2019-01-25T18:24:45.247Z,10.55
2019-01-25T18:27:21.943Z,8.60
2019-01-25T18:30:00.217Z,8.90
2019-01-25T18:32:38.904Z,7.65
2019-01-25T18:35:15.120Z,8.98
2019-01-25T18:37:52.525Z,8.38
2019-01-25T18:40:29.004Z,8.58
2019-01-25T18:43:05.726Z,8.08
2019-01-25T18:45:42.313Z,8.63
2019-01-25T18:48:18.343Z,7.47
2019-01-25T18:50:54.562Z,7.75
2019-01-25T18:53:32.031Z,8.00
2019-01-25T18:56:10.665Z,7.53
2019-01-25T18:58:46.560Z,7.00
2019-01-25T19:01:23.395Z,8.88
2019-01-25T19:03:59.922Z,7.62
2019-01-25T19:06:37.054Z,7.45
2019-01-25T19:09:13.200Z,7.47
2019-01-25T19:11:49.856Z,7.12
2019-01-25T19:14:26.340Z,7.40
2019-01-25T19:17:02.012Z,7.25
2019-01-25T19:19:38.356Z,7.30
2019-01-25T19:22:14.931Z,8.10
2019-01-25T19:24:50.952Z,7.33
2019-01-25T19:27:27.610Z,8.78
2019-01-25T19:30:31.225Z,7.30
2019-01-25T19:33:03.126Z,7.35
2019-01-25T19:35:39.567Z,7.17
2019-01-25T19:38:18.744Z,7.62
2019-01-25T19:40:55.569Z,6.55
2019-01-25T19:43:31.571Z,7.42
2019-01-25T19:46:08.168Z,5.62
2019-01-25T19:48:58.553Z,7.50
2019-01-25T19:51:35.137Z,7.47
2019-01-25T19:54:11.484Z,6.40
2019-01-25T19:56:48.044Z,6.90
2019-01-25T19:59:23.865Z,7.30
2019-01-25T20:02:00.601Z,6.28
2019-01-25T20:04:36.444Z,6.37
2019-01-25T20:07:12.859Z,7.00
2019-01-25T20:09:48.788Z,6.90
2019-01-25T20:12:26.036Z,6.42
2019-01-25T20:15:02.980Z,7.17
2019-01-25T20:17:39.215Z,6.12
2019-01-25T20:20:18.009Z,6.85
2019-01-25T20:22:54.362Z,6.03
2019-01-25T20:25:30.861Z,6.90
2019-01-25T20:28:08.163Z,7.03
2019-01-25T20:30:49.624Z,7.12
2019-01-25T20:33:22.638Z,7.17
2019-01-25T20:36:01.549Z,6.55
2019-01-25T20:38:37.996Z,6.93
2019-01-25T20:41:13.789Z,6.15
2019-01-25T20:43:50.342Z,6.10
2019-01-25T20:46:26.569Z,5.62
2019-01-25T20:49:03.429Z,6.60
2019-01-25T20:51:40.049Z,5.90
2019-01-25T20:54:16.346Z,6.03
2019-01-25T20:56:53.057Z,6.75
2019-01-25T20:59:29.892Z,6.87
2019-01-25T21:02:07.398Z,5.37
2019-01-25T21:04:44.515Z,5.63
2019-01-25T21:07:20.293Z,5.40
2019-01-25T21:09:57.411Z,6.00
2019-01-25T21:12:34.009Z,6.15
2019-01-25T21:15:12.170Z,6.80
2019-01-25T21:18:26.666Z,6.12
2019-01-25T21:21:03.116Z,6.00
2019-01-25T21:23:39.888Z,5.42
2019-01-25T21:26:15.834Z,5.58
2019-01-25T21:28:52.563Z,5.53
2019-01-25T21:31:28.960Z,5.80
2019-01-25T21:34:05.886Z,5.03
2019-01-25T21:36:42.273Z,5.08
2019-01-25T21:39:18.256Z,5.25
2019-01-25T21:41:54.560Z,5.35
2019-01-25T21:44:31.479Z,5.20
2019-01-25T21:47:08.030Z,5.30
2019-01-25T21:49:44.351Z,4.72
2019-01-25T21:52:21.137Z,5.40
2019-01-25T21:54:59.640Z,5.78
2019-01-25T21:57:38.394Z,5.25
2019-01-25T22:00:29.148Z,4.83
2019-01-25T22:03:13.503Z,5.22
2019-01-25T22:05:53.854Z,4.78
2019-01-25T22:08:30.713Z,4.78
2019-01-25T22:11:07.240Z,5.10
2019-01-25T22:13:43.790Z,4.90
2019-01-25T22:16:20.401Z,4.62
2019-01-25T22:18:56.762Z,5.10
2019-01-25T22:21:38.581Z,5.58
2019-01-25T22:24:17.088Z,4.55
2019-01-25T22:26:55.399Z,4.80
2019-01-25T22:29:31.477Z,4.72
2019-01-25T22:32:07.876Z,4.47
2019-01-25T22:34:44.955Z,4.50
2019-01-25T22:37:21.687Z,4.83
2019-01-25T22:40:00.797Z,4.53
2019-01-25T22:42:37.350Z,4.72
2019-01-25T22:45:16.357Z,4.67
2019-01-25T22:47:55.128Z,4.42
2019-01-25T22:50:33.997Z,4.83
2019-01-25T22:53:10.534Z,5.00
2019-01-25T22:55:48.824Z,4.35
2019-01-25T22:58:24.713Z,4.78
2019-01-25T23:01:12.841Z,4.30
2019-01-25T23:04:03.832Z,4.65
2019-01-25T23:06:43.536Z,4.65
2019-01-25T23:09:40.258Z,4.40
2019-01-25T23:12:17.165Z,4.70
2019-01-25T23:15:00.565Z,4.30
2019-01-25T23:17:41.084Z,4.05
2019-01-25T23:20:35.271Z,3.87
2019-01-25T23:23:18.346Z,4.80
2019-01-25T23:26:08.896Z,4.12
2019-01-25T23:28:49.847Z,3.92
2019-01-25T23:31:29.760Z,4.33
2019-01-25T23:34:07.875Z,4.10
2019-01-25T23:36:51.513Z,4.60
2019-01-25T23:39:34.837Z,4.12
2019-01-25T23:42:14.349Z,4.30
2019-01-25T23:44:54.588Z,4.50
2019-01-25T23:47:34.636Z,3.95
2019-01-25T23:50:32.699Z,4.40
2019-01-25T23:53:10.269Z,4.10
2019-01-25T23:55:48.130Z,3.95
2019-01-25T23:58:27.117Z,3.95
